sensor_id;sensor_type;location;lat;lon;timestamp;pressure;altitude;pressure_sealevel;temperature;humidity
7930;BME280;4010;42.698;23.124;2023-03-20T00:00:16;118349.16;;;-140.64;84.99
7930;BME280;4010;42.698;23.124;2023-03-20T00:02:45;118349.16;;;-140.64;84.11
7930;BME280;4010;42.698;23.124;2023-03-20T00:05:16;118349.16;;;-140.64;84.02
7930;BME280;4010;42.698;23.124;2023-03-20T00:07:45;118349.16;;;-140.64;83.80
7930;BME280;4010;42.698;23.124;2023-03-20T00:10:12;118349.16;;;-140.64;84.07
7930;BME280;4010;42.698;23.124;2023-03-20T00:12:39;118349.16;;;-140.64;84.16
7930;BME280;4010;42.698;23.124;2023-03-20T00:15:18;118349.16;;;-140.64;84.55
7930;BME280;4010;42.698;23.124;2023-03-20T00:17:49;118349.16;;;-140.64;84.32
7930;BME280;4010;42.698;23.124;2023-03-20T00:20:16;118349.16;;;-140.64;84.77
7930;BME280;4010;42.698;23.124;2023-03-20T00:22:43;118349.16;;;-140.64;84.88
7930;BME280;4010;42.698;23.124;2023-03-20T00:25:12;118349.16;;;-140.64;85.32
7930;BME280;4010;42.698;23.124;2023-03-20T00:27:40;118349.16;;;-140.64;85.59
7930;BME280;4010;42.698;23.124;2023-03-20T00:30:17;118349.16;;;-140.64;85.73
7930;BME280;4010;42.698;23.124;2023-03-20T00:32:45;118349.16;;;-140.64;85.85
7930;BME280;4010;42.698;23.124;2023-03-20T00:35:22;118349.16;;;-140.64;85.88
7930;BME280;4010;42.698;23.124;2023-03-20T00:37:50;118349.16;;;-140.64;85.73
7930;BME280;4010;42.698;23.124;2023-03-20T00:40:18;118349.16;;;-140.64;86.04
7930;BME280;4010;42.698;23.124;2023-03-20T00:42:47;118349.16;;;-140.64;86.81
7930;BME280;4010;42.698;23.124;2023-03-20T00:45:17;118349.16;;;-140.64;86.83
7930;BME280;4010;42.698;23.124;2023-03-20T00:47:46;118349.16;;;-140.64;86.83
7930;BME280;4010;42.698;23.124;2023-03-20T00:50:16;118349.16;;;-140.64;87.24
7930;BME280;4010;42.698;23.124;2023-03-20T00:52:45;118349.16;;;-140.64;87.31
7930;BME280;4010;42.698;23.124;2023-03-20T00:55:12;118349.16;;;-140.64;87.97
7930;BME280;4010;42.698;23.124;2023-03-20T00:57:42;118349.16;;;-140.64;88.14
7930;BME280;4010;42.698;23.124;2023-03-20T01:03:00;118349.16;;;-140.64;88.99
7930;BME280;4010;42.698;23.124;2023-03-20T01:05:28;118349.16;;;-140.64;89.34
7930;BME280;4010;42.698;23.124;2023-03-20T01:07:56;118349.16;;;-140.64;89.77
7930;BME280;4010;42.698;23.124;2023-03-20T01:10:27;118349.16;;;-140.64;90.06
7930;BME280;4010;42.698;23.124;2023-03-20T01:12:57;118349.16;;;-140.64;90.57
7930;BME280;4010;42.698;23.124;2023-03-20T01:15:29;118349.16;;;-140.64;90.67
7930;BME280;4010;42.698;23.124;2023-03-20T01:17:57;118349.16;;;-140.64;90.60
7930;BME280;4010;42.698;23.124;2023-03-20T01:20:26;118349.16;;;-140.64;90.65
7930;BME280;4010;42.698;23.124;2023-03-20T01:22:53;118349.16;;;-140.64;90.76
7930;BME280;4010;42.698;23.124;2023-03-20T01:25:21;118349.16;;;-140.64;90.68
7930;BME280;4010;42.698;23.124;2023-03-20T01:27:50;118349.16;;;-140.64;91.07
7930;BME280;4010;42.698;23.124;2023-03-20T01:30:20;118349.16;;;-140.64;91.86
7930;BME280;4010;42.698;23.124;2023-03-20T01:32:48;118349.16;;;-140.64;91.99
7930;BME280;4010;42.698;23.124;2023-03-20T01:35:17;118349.16;;;-140.64;91.78
7930;BME280;4010;42.698;23.124;2023-03-20T01:37:45;118349.16;;;-140.64;91.56
7930;BME280;4010;42.698;23.124;2023-03-20T01:43:01;118349.16;;;-140.64;89.92
7930;BME280;4010;42.698;23.124;2023-03-20T01:45:32;118349.16;;;-140.64;89.35
7930;BME280;4010;42.698;23.124;2023-03-20T01:48:04;118349.16;;;-140.64;86.66
7930;BME280;4010;42.698;23.124;2023-03-20T01:50:38;118349.16;;;-140.64;86.63
7930;BME280;4010;42.698;23.124;2023-03-20T01:53:08;118349.16;;;-140.64;86.67
7930;BME280;4010;42.698;23.124;2023-03-20T01:55:37;118349.16;;;-140.64;86.40
7930;BME280;4010;42.698;23.124;2023-03-20T01:58:12;118349.16;;;-140.64;86.61
7930;BME280;4010;42.698;23.124;2023-03-20T02:00:41;118349.16;;;-140.64;85.99
7930;BME280;4010;42.698;23.124;2023-03-20T02:03:08;118349.16;;;-140.64;86.44
7930;BME280;4010;42.698;23.124;2023-03-20T02:05:35;118349.16;;;-140.64;85.98
7930;BME280;4010;42.698;23.124;2023-03-20T02:08:15;118349.16;;;-140.64;85.65
7930;BME280;4010;42.698;23.124;2023-03-20T02:10:44;118349.16;;;-140.64;86.09
7930;BME280;4010;42.698;23.124;2023-03-20T02:13:14;118349.16;;;-140.64;86.28
7930;BME280;4010;42.698;23.124;2023-03-20T02:15:54;118349.16;;;-140.64;86.35
7930;BME280;4010;42.698;23.124;2023-03-20T02:18:21;118349.16;;;-140.64;86.41
7930;BME280;4010;42.698;23.124;2023-03-20T02:27:11;118349.16;;;-140.64;87.13
7930;BME280;4010;42.698;23.124;2023-03-20T02:30:14;118349.16;;;-140.64;87.17
7930;BME280;4010;42.698;23.124;2023-03-20T02:36:11;118349.16;;;-140.64;87.57
7930;BME280;4010;42.698;23.124;2023-03-20T02:38:54;118349.16;;;-140.64;88.05
7930;BME280;4010;42.698;23.124;2023-03-20T02:41:28;118349.16;;;-140.64;88.91
7930;BME280;4010;42.698;23.124;2023-03-20T02:44:01;118349.16;;;-140.64;88.96
7930;BME280;4010;42.698;23.124;2023-03-20T02:46:41;118349.16;;;-140.64;88.72
7930;BME280;4010;42.698;23.124;2023-03-20T02:49:17;118349.16;;;-140.64;89.11
7930;BME280;4010;42.698;23.124;2023-03-20T02:51:53;118349.16;;;-140.64;89.31
7930;BME280;4010;42.698;23.124;2023-03-20T02:54:28;118349.16;;;-140.64;89.66
7930;BME280;4010;42.698;23.124;2023-03-20T02:57:01;118349.16;;;-140.64;89.97
7930;BME280;4010;42.698;23.124;2023-03-20T02:59:33;118349.16;;;-140.64;90.04
7930;BME280;4010;42.698;23.124;2023-03-20T03:02:05;118349.16;;;-140.64;90.21
7930;BME280;4010;42.698;23.124;2023-03-20T03:04:35;118349.16;;;-140.64;90.28
7930;BME280;4010;42.698;23.124;2023-03-20T03:07:04;118349.16;;;-140.64;90.90
7930;BME280;4010;42.698;23.124;2023-03-20T03:09:38;118349.16;;;-140.64;89.54
7930;BME280;4010;42.698;23.124;2023-03-20T03:12:10;118349.16;;;-140.64;90.10
7930;BME280;4010;42.698;23.124;2023-03-20T03:14:40;118349.16;;;-140.64;90.50
7930;BME280;4010;42.698;23.124;2023-03-20T03:17:09;118349.16;;;-140.64;90.81
7930;BME280;4010;42.698;23.124;2023-03-20T03:19:39;118349.16;;;-140.64;90.53
7930;BME280;4010;42.698;23.124;2023-03-20T03:22:08;118349.16;;;-140.64;89.89
7930;BME280;4010;42.698;23.124;2023-03-20T03:24:42;118349.16;;;-140.64;89.75
7930;BME280;4010;42.698;23.124;2023-03-20T03:27:16;118349.16;;;-140.64;89.80
7930;BME280;4010;42.698;23.124;2023-03-20T03:29:48;118349.16;;;-140.64;89.90
7930;BME280;4010;42.698;23.124;2023-03-20T03:32:29;118349.16;;;-140.64;89.91
7930;BME280;4010;42.698;23.124;2023-03-20T03:34:57;118349.16;;;-140.64;90.15
7930;BME280;4010;42.698;23.124;2023-03-20T03:37:38;118349.16;;;-140.64;90.41
7930;BME280;4010;42.698;23.124;2023-03-20T03:40:14;118349.16;;;-140.64;91.06
7930;BME280;4010;42.698;23.124;2023-03-20T03:42:51;118349.16;;;-140.64;90.80
7930;BME280;4010;42.698;23.124;2023-03-20T03:45:27;118349.16;;;-140.64;91.25
7930;BME280;4010;42.698;23.124;2023-03-20T03:47:58;118349.16;;;-140.64;91.29
7930;BME280;4010;42.698;23.124;2023-03-20T03:50:29;118349.16;;;-140.64;90.59
7930;BME280;4010;42.698;23.124;2023-03-20T03:52:58;118349.16;;;-140.64;90.48
7930;BME280;4010;42.698;23.124;2023-03-20T03:55:33;118349.16;;;-140.64;90.38
7930;BME280;4010;42.698;23.124;2023-03-20T03:58:02;118349.16;;;-140.64;90.86
7930;BME280;4010;42.698;23.124;2023-03-20T04:00:31;118349.16;;;-140.64;91.00
7930;BME280;4010;42.698;23.124;2023-03-20T04:02:59;118349.16;;;-140.64;90.43
7930;BME280;4010;42.698;23.124;2023-03-20T04:05:28;118349.16;;;-140.64;90.63
7930;BME280;4010;42.698;23.124;2023-03-20T04:07:58;118349.16;;;-140.64;91.19
7930;BME280;4010;42.698;23.124;2023-03-20T04:10:28;118349.16;;;-140.64;91.37
7930;BME280;4010;42.698;23.124;2023-03-20T04:12:54;118349.16;;;-140.64;91.05
7930;BME280;4010;42.698;23.124;2023-03-20T04:15:21;118349.16;;;-140.64;91.59
7930;BME280;4010;42.698;23.124;2023-03-20T04:17:48;118349.16;;;-140.64;91.80
7930;BME280;4010;42.698;23.124;2023-03-20T04:20:15;118349.16;;;-140.64;92.27
7930;BME280;4010;42.698;23.124;2023-03-20T04:22:42;118349.16;;;-140.64;92.06
7930;BME280;4010;42.698;23.124;2023-03-20T04:25:18;118349.16;;;-140.64;92.34
7930;BME280;4010;42.698;23.124;2023-03-20T04:27:46;118349.16;;;-140.64;92.45
7930;BME280;4010;42.698;23.124;2023-03-20T04:30:13;118349.16;;;-140.64;92.30
7930;BME280;4010;42.698;23.124;2023-03-20T04:32:40;118349.16;;;-140.64;92.29
7930;BME280;4010;42.698;23.124;2023-03-20T04:35:07;118349.16;;;-140.64;92.23
7930;BME280;4010;42.698;23.124;2023-03-20T04:37:34;118349.16;;;-140.64;92.11
7930;BME280;4010;42.698;23.124;2023-03-20T04:40:01;118349.16;;;-140.64;92.36
7930;BME280;4010;42.698;23.124;2023-03-20T04:42:28;118349.16;;;-140.64;92.29
7930;BME280;4010;42.698;23.124;2023-03-20T04:44:56;118349.16;;;-140.64;90.67
7930;BME280;4010;42.698;23.124;2023-03-20T04:47:23;118349.16;;;-140.64;90.42
7930;BME280;4010;42.698;23.124;2023-03-20T04:49:50;118349.16;;;-140.64;90.69
7930;BME280;4010;42.698;23.124;2023-03-20T04:52:17;118349.16;;;-140.64;90.55
7930;BME280;4010;42.698;23.124;2023-03-20T04:54:43;118349.16;;;-140.64;89.83
7930;BME280;4010;42.698;23.124;2023-03-20T04:57:10;118349.16;;;-140.64;89.78
7930;BME280;4010;42.698;23.124;2023-03-20T04:59:37;118349.16;;;-140.64;89.22
7930;BME280;4010;42.698;23.124;2023-03-20T05:02:05;118349.16;;;-140.64;88.53
7930;BME280;4010;42.698;23.124;2023-03-20T05:04:32;118349.16;;;-140.64;88.25
7930;BME280;4010;42.698;23.124;2023-03-20T05:06:58;118349.16;;;-140.64;87.06
7930;BME280;4010;42.698;23.124;2023-03-20T05:09:25;118349.16;;;-140.64;86.59
7930;BME280;4010;42.698;23.124;2023-03-20T05:11:52;118349.16;;;-140.64;85.63
7930;BME280;4010;42.698;23.124;2023-03-20T05:14:19;118349.16;;;-140.64;83.79
7930;BME280;4010;42.698;23.124;2023-03-20T05:16:46;118349.16;;;-140.64;81.36
7930;BME280;4010;42.698;23.124;2023-03-20T05:19:16;118349.16;;;-140.64;80.34
7930;BME280;4010;42.698;23.124;2023-03-20T05:21:43;118349.16;;;-140.64;78.26
7930;BME280;4010;42.698;23.124;2023-03-20T05:24:10;118349.16;;;-140.64;77.99
7930;BME280;4010;42.698;23.124;2023-03-20T05:26:36;118349.16;;;-140.64;76.77
7930;BME280;4010;42.698;23.124;2023-03-20T05:29:03;118349.16;;;-140.64;75.68
7930;BME280;4010;42.698;23.124;2023-03-20T05:31:30;118349.16;;;-140.64;73.73
7930;BME280;4010;42.698;23.124;2023-03-20T05:33:56;118349.16;;;-140.64;72.92
7930;BME280;4010;42.698;23.124;2023-03-20T05:36:24;118349.16;;;-140.64;71.77
7930;BME280;4010;42.698;23.124;2023-03-20T05:38:51;118349.16;;;-140.64;70.95
7930;BME280;4010;42.698;23.124;2023-03-20T05:41:18;118349.16;;;-140.64;68.17
7930;BME280;4010;42.698;23.124;2023-03-20T05:43:44;118349.16;;;-140.64;66.50
7930;BME280;4010;42.698;23.124;2023-03-20T05:46:11;118349.16;;;-140.64;65.04
7930;BME280;4010;42.698;23.124;2023-03-20T05:48:38;118349.16;;;-140.64;67.29
7930;BME280;4010;42.698;23.124;2023-03-20T05:51:05;118349.16;;;-140.64;65.42
7930;BME280;4010;42.698;23.124;2023-03-20T05:53:33;118349.16;;;-140.64;65.72
7930;BME280;4010;42.698;23.124;2023-03-20T05:56:00;118349.16;;;-140.64;64.91
7930;BME280;4010;42.698;23.124;2023-03-20T05:58:26;118349.16;;;-140.64;63.96
7930;BME280;4010;42.698;23.124;2023-03-20T06:00:53;118349.16;;;-140.64;61.84
7930;BME280;4010;42.698;23.124;2023-03-20T06:03:22;118349.16;;;-140.64;61.30
7930;BME280;4010;42.698;23.124;2023-03-20T06:05:48;118349.16;;;-140.64;60.21
7930;BME280;4010;42.698;23.124;2023-03-20T06:08:15;118349.16;;;-140.64;60.25
7930;BME280;4010;42.698;23.124;2023-03-20T06:10:43;118349.16;;;-140.64;59.84
7930;BME280;4010;42.698;23.124;2023-03-20T06:13:10;118349.16;;;-140.64;60.16
7930;BME280;4010;42.698;23.124;2023-03-20T06:15:37;118349.16;;;-140.64;60.45
7930;BME280;4010;42.698;23.124;2023-03-20T06:18:03;118349.16;;;-140.64;60.43
7930;BME280;4010;42.698;23.124;2023-03-20T06:20:30;118349.16;;;-140.64;59.78
7930;BME280;4010;42.698;23.124;2023-03-20T06:22:57;118349.16;;;-140.64;62.00
7930;BME280;4010;42.698;23.124;2023-03-20T06:25:24;118349.16;;;-140.64;60.30
7930;BME280;4010;42.698;23.124;2023-03-20T06:27:52;118349.16;;;-140.64;60.92
7930;BME280;4010;42.698;23.124;2023-03-20T06:30:19;118349.16;;;-140.64;57.64
7930;BME280;4010;42.698;23.124;2023-03-20T06:32:45;118349.16;;;-140.64;58.25
7930;BME280;4010;42.698;23.124;2023-03-20T06:35:13;118349.16;;;-140.64;57.51
7930;BME280;4010;42.698;23.124;2023-03-20T06:37:40;118349.16;;;-140.64;57.39
7930;BME280;4010;42.698;23.124;2023-03-20T06:40:07;118349.16;;;-140.64;54.88
7930;BME280;4010;42.698;23.124;2023-03-20T06:42:35;118349.16;;;-140.64;55.73
7930;BME280;4010;42.698;23.124;2023-03-20T06:45:04;118349.16;;;-140.64;55.16
7930;BME280;4010;42.698;23.124;2023-03-20T06:47:32;118349.16;;;-140.64;53.27
7930;BME280;4010;42.698;23.124;2023-03-20T06:49:59;118349.16;;;-140.64;53.60
7930;BME280;4010;42.698;23.124;2023-03-20T06:52:25;118349.16;;;-140.64;54.72
7930;BME280;4010;42.698;23.124;2023-03-20T06:54:52;118349.16;;;-140.64;52.66
7930;BME280;4010;42.698;23.124;2023-03-20T06:57:20;118349.16;;;-140.64;53.66
7930;BME280;4010;42.698;23.124;2023-03-20T06:59:47;118349.16;;;-140.64;51.82
7930;BME280;4010;42.698;23.124;2023-03-20T07:02:15;118349.16;;;-140.64;50.41
7930;BME280;4010;42.698;23.124;2023-03-20T07:04:42;118349.16;;;-140.64;49.93
7930;BME280;4010;42.698;23.124;2023-03-20T07:07:08;118349.16;;;-140.64;50.68
7930;BME280;4010;42.698;23.124;2023-03-20T07:09:35;118349.16;;;-140.64;51.46
7930;BME280;4010;42.698;23.124;2023-03-20T07:12:03;118349.16;;;-140.64;48.54
7930;BME280;4010;42.698;23.124;2023-03-20T07:14:30;118349.16;;;-140.64;47.61
7930;BME280;4010;42.698;23.124;2023-03-20T07:16:56;118349.16;;;-140.64;48.79
7930;BME280;4010;42.698;23.124;2023-03-20T07:19:25;118349.16;;;-140.64;48.71
7930;BME280;4010;42.698;23.124;2023-03-20T07:21:55;118349.16;;;-140.64;48.38
7930;BME280;4010;42.698;23.124;2023-03-20T07:24:23;118349.16;;;-140.64;49.46
7930;BME280;4010;42.698;23.124;2023-03-20T07:26:50;118349.16;;;-140.64;48.74
7930;BME280;4010;42.698;23.124;2023-03-20T07:29:17;118349.16;;;-140.64;49.19
7930;BME280;4010;42.698;23.124;2023-03-20T07:31:44;118349.16;;;-140.64;50.99
7930;BME280;4010;42.698;23.124;2023-03-20T07:34:11;118349.16;;;-140.64;49.89
7930;BME280;4010;42.698;23.124;2023-03-20T07:36:39;118349.16;;;-140.64;49.14
7930;BME280;4010;42.698;23.124;2023-03-20T07:39:06;118349.16;;;-140.64;49.98
7930;BME280;4010;42.698;23.124;2023-03-20T07:41:34;118349.16;;;-140.64;50.73
7930;BME280;4010;42.698;23.124;2023-03-20T07:44:00;118349.16;;;-140.64;50.46
7930;BME280;4010;42.698;23.124;2023-03-20T07:46:27;118349.16;;;-140.64;49.00
7930;BME280;4010;42.698;23.124;2023-03-20T07:48:54;118349.16;;;-140.64;49.96
7930;BME280;4010;42.698;23.124;2023-03-20T07:51:22;118349.16;;;-140.64;48.77
7930;BME280;4010;42.698;23.124;2023-03-20T07:53:50;118349.16;;;-140.64;48.70
7930;BME280;4010;42.698;23.124;2023-03-20T07:56:17;118349.16;;;-140.64;48.98
7930;BME280;4010;42.698;23.124;2023-03-20T07:58:44;118349.16;;;-140.64;48.58
7930;BME280;4010;42.698;23.124;2023-03-20T08:01:10;118349.16;;;-140.64;47.40
7930;BME280;4010;42.698;23.124;2023-03-20T08:03:37;118349.16;;;-140.64;48.70
7930;BME280;4010;42.698;23.124;2023-03-20T08:06:04;118349.16;;;-140.64;47.00
7930;BME280;4010;42.698;23.124;2023-03-20T08:08:34;118349.16;;;-140.64;46.03
7930;BME280;4010;42.698;23.124;2023-03-20T08:11:02;118349.16;;;-140.64;47.98
7930;BME280;4010;42.698;23.124;2023-03-20T08:13:29;118349.16;;;-140.64;47.15
7930;BME280;4010;42.698;23.124;2023-03-20T08:15:55;118349.16;;;-140.64;47.41
7930;BME280;4010;42.698;23.124;2023-03-20T08:18:22;118349.16;;;-140.64;47.82
7930;BME280;4010;42.698;23.124;2023-03-20T08:20:49;118349.16;;;-140.64;49.34
7930;BME280;4010;42.698;23.124;2023-03-20T08:23:16;118349.16;;;-140.64;48.38
7930;BME280;4010;42.698;23.124;2023-03-20T08:25:46;118349.16;;;-140.64;47.78
7930;BME280;4010;42.698;23.124;2023-03-20T08:28:14;118349.16;;;-140.64;47.91
7930;BME280;4010;42.698;23.124;2023-03-20T08:30:41;118349.16;;;-140.64;49.66
7930;BME280;4010;42.698;23.124;2023-03-20T08:33:08;118349.16;;;-140.64;48.28
7930;BME280;4010;42.698;23.124;2023-03-20T08:35:35;118349.16;;;-140.64;49.76
7930;BME280;4010;42.698;23.124;2023-03-20T08:38:02;118349.16;;;-140.64;48.54
7930;BME280;4010;42.698;23.124;2023-03-20T08:40:29;118349.16;;;-140.64;46.86
7930;BME280;4010;42.698;23.124;2023-03-20T08:42:56;118349.16;;;-140.64;47.01
7930;BME280;4010;42.698;23.124;2023-03-20T08:45:24;118349.16;;;-140.64;45.66
7930;BME280;4010;42.698;23.124;2023-03-20T08:47:51;118349.16;;;-140.64;44.55
7930;BME280;4010;42.698;23.124;2023-03-20T08:50:19;118349.16;;;-140.64;44.99
7930;BME280;4010;42.698;23.124;2023-03-20T08:52:46;118349.16;;;-140.64;45.31
7930;BME280;4010;42.698;23.124;2023-03-20T08:55:13;118349.16;;;-140.64;44.29
7930;BME280;4010;42.698;23.124;2023-03-20T08:57:41;118349.16;;;-140.64;45.60
7930;BME280;4010;42.698;23.124;2023-03-20T09:00:10;118349.16;;;-140.64;44.10
7930;BME280;4010;42.698;23.124;2023-03-20T09:02:39;118349.16;;;-140.64;46.16
7930;BME280;4010;42.698;23.124;2023-03-20T09:17:20;118349.16;;;-140.64;43.30
7930;BME280;4010;42.698;23.124;2023-03-20T09:19:47;118349.16;;;-140.64;42.94
7930;BME280;4010;42.698;23.124;2023-03-20T09:22:15;118349.16;;;-140.64;44.36
7930;BME280;4010;42.698;23.124;2023-03-20T09:24:42;118349.16;;;-140.64;43.99
7930;BME280;4010;42.698;23.124;2023-03-20T09:27:09;118349.16;;;-140.64;43.18
7930;BME280;4010;42.698;23.124;2023-03-20T09:29:38;118349.16;;;-140.64;42.25
7930;BME280;4010;42.698;23.124;2023-03-20T09:32:04;118349.16;;;-140.64;43.25
7930;BME280;4010;42.698;23.124;2023-03-20T09:34:33;118349.16;;;-140.64;43.09
7930;BME280;4010;42.698;23.124;2023-03-20T09:37:00;118349.16;;;-140.64;43.49
7930;BME280;4010;42.698;23.124;2023-03-20T09:39:28;118349.16;;;-140.64;42.20
7930;BME280;4010;42.698;23.124;2023-03-20T09:41:57;118349.16;;;-140.64;41.57
7930;BME280;4010;42.698;23.124;2023-03-20T09:44:37;118349.16;;;-140.64;43.41
7930;BME280;4010;42.698;23.124;2023-03-20T09:47:15;118349.16;;;-140.64;41.91
7930;BME280;4010;42.698;23.124;2023-03-20T09:49:52;118349.16;;;-140.64;41.50
7930;BME280;4010;42.698;23.124;2023-03-20T09:52:25;118349.16;;;-140.64;39.77
7930;BME280;4010;42.698;23.124;2023-03-20T09:54:57;118349.16;;;-140.64;41.54
7930;BME280;4010;42.698;23.124;2023-03-20T09:57:27;118349.16;;;-140.64;40.10
7930;BME280;4010;42.698;23.124;2023-03-20T09:59:57;118349.16;;;-140.64;38.84
7930;BME280;4010;42.698;23.124;2023-03-20T10:02:35;118349.16;;;-140.64;38.16
7930;BME280;4010;42.698;23.124;2023-03-20T10:05:14;118349.16;;;-140.64;39.57
7930;BME280;4010;42.698;23.124;2023-03-20T10:07:42;118349.16;;;-140.64;41.06
7930;BME280;4010;42.698;23.124;2023-03-20T10:10:12;118349.16;;;-140.64;39.76
7930;BME280;4010;42.698;23.124;2023-03-20T10:12:48;118349.16;;;-140.64;38.80
7930;BME280;4010;42.698;23.124;2023-03-20T10:15:23;118349.16;;;-140.64;37.91
7930;BME280;4010;42.698;23.124;2023-03-20T10:17:59;118349.16;;;-140.64;38.39
7930;BME280;4010;42.698;23.124;2023-03-20T10:20:33;118349.16;;;-140.64;37.51
7930;BME280;4010;42.698;23.124;2023-03-20T10:23:05;118349.16;;;-140.64;38.87
7930;BME280;4010;42.698;23.124;2023-03-20T10:25:35;118349.16;;;-140.64;37.68
7930;BME280;4010;42.698;23.124;2023-03-20T10:28:09;118349.16;;;-140.64;37.65
7930;BME280;4010;42.698;23.124;2023-03-20T10:30:51;118349.16;;;-140.64;36.22
7930;BME280;4010;42.698;23.124;2023-03-20T10:33:29;118349.16;;;-140.64;35.82
7930;BME280;4010;42.698;23.124;2023-03-20T10:36:09;118349.16;;;-140.64;35.34
7930;BME280;4010;42.698;23.124;2023-03-20T10:38:42;118349.16;;;-140.64;34.80
7930;BME280;4010;42.698;23.124;2023-03-20T10:41:15;118349.16;;;-140.64;35.47
7930;BME280;4010;42.698;23.124;2023-03-20T10:43:43;118349.16;;;-140.64;35.72
7930;BME280;4010;42.698;23.124;2023-03-20T10:46:14;118349.16;;;-140.64;35.44
7930;BME280;4010;42.698;23.124;2023-03-20T10:48:45;118349.16;;;-140.64;34.80
7930;BME280;4010;42.698;23.124;2023-03-20T10:51:16;118349.16;;;-140.64;34.33
7930;BME280;4010;42.698;23.124;2023-03-20T10:53:46;118349.16;;;-140.64;34.04
7930;BME280;4010;42.698;23.124;2023-03-20T10:56:16;118349.16;;;-140.64;34.79
7930;BME280;4010;42.698;23.124;2023-03-20T10:58:56;118349.16;;;-140.64;31.50
7930;BME280;4010;42.698;23.124;2023-03-20T11:01:24;118349.16;;;-140.64;32.61
7930;BME280;4010;42.698;23.124;2023-03-20T11:03:51;118349.16;;;-140.64;32.33
7930;BME280;4010;42.698;23.124;2023-03-20T11:06:21;118349.16;;;-140.64;32.87
7930;BME280;4010;42.698;23.124;2023-03-20T11:08:51;118349.16;;;-140.64;32.36
7930;BME280;4010;42.698;23.124;2023-03-20T11:11:23;118349.16;;;-140.64;32.16
7930;BME280;4010;42.698;23.124;2023-03-20T11:13:51;118349.16;;;-140.64;32.43
7930;BME280;4010;42.698;23.124;2023-03-20T11:16:20;118349.16;;;-140.64;33.38
7930;BME280;4010;42.698;23.124;2023-03-20T11:18:49;118349.16;;;-140.64;33.38
7930;BME280;4010;42.698;23.124;2023-03-20T11:21:22;118349.16;;;-140.64;33.05
7930;BME280;4010;42.698;23.124;2023-03-20T11:23:50;118349.16;;;-140.64;31.81
7930;BME280;4010;42.698;23.124;2023-03-20T11:26:19;118349.16;;;-140.64;30.73
7930;BME280;4010;42.698;23.124;2023-03-20T11:28:55;118349.16;;;-140.64;31.54
7930;BME280;4010;42.698;23.124;2023-03-20T11:31:24;118349.16;;;-140.64;31.00
7930;BME280;4010;42.698;23.124;2023-03-20T11:34:08;118349.16;;;-140.64;28.60
7930;BME280;4010;42.698;23.124;2023-03-20T11:36:37;118349.16;;;-140.64;30.33
7930;BME280;4010;42.698;23.124;2023-03-20T11:39:11;118349.16;;;-140.64;28.83
7930;BME280;4010;42.698;23.124;2023-03-20T11:41:42;118349.16;;;-140.64;28.40
7930;BME280;4010;42.698;23.124;2023-03-20T11:44:20;118349.16;;;-140.64;28.85
7930;BME280;4010;42.698;23.124;2023-03-20T11:46:54;118349.16;;;-140.64;28.24
7930;BME280;4010;42.698;23.124;2023-03-20T11:49:23;118349.16;;;-140.64;27.25
7930;BME280;4010;42.698;23.124;2023-03-20T11:51:55;118349.16;;;-140.64;26.59
7930;BME280;4010;42.698;23.124;2023-03-20T11:54:23;118349.16;;;-140.64;27.77
7930;BME280;4010;42.698;23.124;2023-03-20T11:56:53;118349.16;;;-140.64;27.32
7930;BME280;4010;42.698;23.124;2023-03-20T11:59:21;118349.16;;;-140.64;29.58
7930;BME280;4010;42.698;23.124;2023-03-20T12:01:49;118349.16;;;-140.64;31.06
7930;BME280;4010;42.698;23.124;2023-03-20T12:04:18;118349.16;;;-140.64;30.45
7930;BME280;4010;42.698;23.124;2023-03-20T12:06:49;118349.16;;;-140.64;30.37
7930;BME280;4010;42.698;23.124;2023-03-20T12:09:32;118349.16;;;-140.64;31.24
7930;BME280;4010;42.698;23.124;2023-03-20T12:12:04;118349.16;;;-140.64;30.20
7930;BME280;4010;42.698;23.124;2023-03-20T12:14:37;118349.16;;;-140.64;29.32
7930;BME280;4010;42.698;23.124;2023-03-20T12:17:28;118349.16;;;-140.64;30.31
7930;BME280;4010;42.698;23.124;2023-03-20T12:20:02;118349.16;;;-140.64;29.10
7930;BME280;4010;42.698;23.124;2023-03-20T12:22:34;118349.16;;;-140.64;28.08
7930;BME280;4010;42.698;23.124;2023-03-20T12:25:08;118349.16;;;-140.64;27.64
7930;BME280;4010;42.698;23.124;2023-03-20T12:27:46;118349.16;;;-140.64;27.35
7930;BME280;4010;42.698;23.124;2023-03-20T12:30:19;118349.16;;;-140.64;27.82
7930;BME280;4010;42.698;23.124;2023-03-20T12:32:52;118349.16;;;-140.64;27.20
7930;BME280;4010;42.698;23.124;2023-03-20T12:35:26;118349.16;;;-140.64;27.65
7930;BME280;4010;42.698;23.124;2023-03-20T12:37:53;118349.16;;;-140.64;29.14
7930;BME280;4010;42.698;23.124;2023-03-20T12:40:25;118349.16;;;-140.64;28.98
7930;BME280;4010;42.698;23.124;2023-03-20T12:43:02;118349.16;;;-140.64;29.27
7930;BME280;4010;42.698;23.124;2023-03-20T12:45:32;118349.16;;;-140.64;29.86
7930;BME280;4010;42.698;23.124;2023-03-20T12:48:36;118349.16;;;-140.64;29.23
7930;BME280;4010;42.698;23.124;2023-03-20T12:51:07;118349.16;;;-140.64;29.12
7930;BME280;4010;42.698;23.124;2023-03-20T12:53:44;118349.16;;;-140.64;28.24
7930;BME280;4010;42.698;23.124;2023-03-20T12:56:23;118349.16;;;-140.64;28.07
7930;BME280;4010;42.698;23.124;2023-03-20T12:58:56;118349.16;;;-140.64;29.58
7930;BME280;4010;42.698;23.124;2023-03-20T13:01:28;118349.16;;;-140.64;28.78
7930;BME280;4010;42.698;23.124;2023-03-20T13:04:04;118349.16;;;-140.64;28.50
7930;BME280;4010;42.698;23.124;2023-03-20T13:06:42;118349.16;;;-140.64;27.20
7930;BME280;4010;42.698;23.124;2023-03-20T13:09:45;118349.16;;;-140.64;27.20
7930;BME280;4010;42.698;23.124;2023-03-20T13:12:33;118349.16;;;-140.64;26.79
7930;BME280;4010;42.698;23.124;2023-03-20T13:15:09;118349.16;;;-140.64;26.73
7930;BME280;4010;42.698;23.124;2023-03-20T13:17:43;118349.16;;;-140.64;28.39
7930;BME280;4010;42.698;23.124;2023-03-20T13:20:19;118349.16;;;-140.64;27.79
7930;BME280;4010;42.698;23.124;2023-03-20T13:22:55;118349.16;;;-140.64;28.42